Time;durP1;ratioP1;P1;durP2;ratioP2;P2;SDS_P1;SDS_P2;PMS_P1;PMS_P2;Temp;Humidity;BMP_temperature;BMP_pressure;BME280_temperature;BME280_humidity;BME280_pressure;Samples;Min_cycle;Max_cycle;Signal;HPM_P1;HPM_P2
2023/02/26 00:01:21;;;;;;;2.55;2.33;;;7.10;63.80;;;;;;5033631;28;20464;-74
2023/02/26 00:03:51;;;;;;;3.00;2.05;;;7.00;63.70;;;;;;5033850;28;20029;-73
2023/02/26 00:06:20;;;;;;;2.00;1.70;;;7.00;63.60;;;;;;5034013;28;20029;-73
2023/02/26 00:08:46;;;;;;;3.38;2.25;;;6.90;63.60;;;;;;5033692;28;20025;-73
2023/02/26 00:11:13;;;;;;;3.22;2.17;;;6.90;63.60;;;;;;5033686;28;20529;-73
2023/02/26 00:13:41;;;;;;;3.60;2.70;;;6.90;63.60;;;;;;5033440;28;20029;-73
2023/02/26 00:16:31;;;;;;;4.15;3.00;;;6.80;63.60;;;;;;5028718;28;20079;-73
2023/02/26 00:19:00;;;;;;;3.40;2.53;;;6.80;63.60;;;;;;5028042;28;20114;-74
2023/02/26 00:21:27;;;;;;;4.50;2.42;;;6.70;63.60;;;;;;5035416;28;20385;-73
2023/02/26 00:23:54;;;;;;;2.90;2.15;;;6.60;63.70;;;;;;5053127;28;20021;-74
2023/02/26 00:26:21;;;;;;;4.60;2.10;;;6.60;63.90;;;;;;5053124;28;20048;-74
2023/02/26 00:28:48;;;;;;;2.45;1.80;;;6.50;64.10;;;;;;5053494;28;20056;-74
2023/02/26 00:31:16;;;;;;;3.92;2.42;;;6.50;64.50;;;;;;5053457;28;20482;-74
2023/02/26 00:33:43;;;;;;;2.72;2.20;;;6.50;64.60;;;;;;5052750;28;20033;-74
2023/02/26 00:36:21;;;;;;;6.85;3.92;;;6.50;64.60;;;;;;5034658;28;20025;-74
2023/02/26 00:39:19;;;;;;;5.88;3.75;;;6.50;64.30;;;;;;5053450;28;20424;-74
2023/02/26 00:41:45;;;;;;;4.28;2.47;;;6.50;64.10;;;;;;5053080;28;20470;-74
2023/02/26 00:44:12;;;;;;;4.63;2.60;;;6.50;64.10;;;;;;5053164;28;20080;-74
2023/02/26 00:46:47;;;;;;;2.63;2.15;;;6.50;64.10;;;;;;5053675;28;20025;-74
2023/02/26 00:49:31;;;;;;;4.22;2.25;;;6.50;63.90;;;;;;5053386;28;20029;-74
2023/02/26 00:52:09;;;;;;;6.60;2.53;;;6.40;63.80;;;;;;5054732;28;20377;-74
2023/02/26 00:54:35;;;;;;;5.93;2.88;;;6.40;63.70;;;;;;5039206;28;20029;-74
2023/02/26 00:57:03;;;;;;;4.45;2.55;;;6.40;63.90;;;;;;5057134;28;20039;-74
2023/02/26 00:59:29;;;;;;;4.35;2.65;;;6.30;63.90;;;;;;5039191;28;20076;-74
2023/02/26 01:01:58;;;;;;;4.82;2.75;;;6.30;64.10;;;;;;5039168;28;20025;-74
2023/02/26 01:04:24;;;;;;;3.42;2.15;;;6.20;64.30;;;;;;5039245;28;20441;-74
2023/02/26 01:06:53;;;;;;;1.20;1.02;;;6.00;62.00;;;;;;5056582;28;20482;-74
2023/02/26 01:09:27;;;;;;;1.50;1.33;;;5.90;59.80;;;;;;5039018;28;20032;-74
2023/02/26 01:11:56;;;;;;;1.85;1.23;;;5.90;59.60;;;;;;5038914;28;20043;-74
2023/02/26 01:14:22;;;;;;;2.92;1.70;;;5.90;59.60;;;;;;5057089;28;20059;-74
2023/02/26 01:17:07;;;;;;;1.35;1.15;;;5.80;59.70;;;;;;5057060;28;20071;-74
2023/02/26 01:19:32;;;;;;;;;;;5.80;60.10;;;;;;5057171;28;20108;-74
2023/02/26 01:22:09;;;;;;;2.05;0.93;;;5.80;60.70;;;;;;5056583;28;19936;-73
2023/02/26 01:24:35;;;;;;;2.25;1.20;;;5.80;59.70;;;;;;5035269;28;20048;-74
2023/02/26 01:27:02;;;;;;;2.33;0.90;;;5.80;59.20;;;;;;5037080;28;20497;-74
2023/02/26 01:29:28;;;;;;;1.48;1.00;;;5.70;58.90;;;;;;5036658;28;20040;-73
2023/02/26 01:32:05;;;;;;;1.42;1.02;;;5.70;58.90;;;;;;5030503;28;20021;-74
2023/02/26 01:34:40;;;;;;;1.30;0.90;;;5.60;59.20;;;;;;5035284;28;20083;-74
2023/02/26 01:37:12;;;;;;;3.30;0.95;;;5.60;59.30;;;;;;5018399;28;20026;-74
2023/02/26 01:39:47;;;;;;;0.85;0.50;;;5.60;59.20;;;;;;5016682;28;20065;-74
2023/02/26 01:42:24;;;;;;;1.25;0.75;;;5.60;59.30;;;;;;5016588;28;20037;-74
2023/02/26 01:44:53;;;;;;;1.83;0.90;;;5.60;59.40;;;;;;5016645;28;20097;-74
2023/02/26 01:47:28;;;;;;;1.98;0.80;;;5.60;59.40;;;;;;5016660;28;20029;-74
2023/02/26 01:49:54;;;;;;;1.20;0.90;;;5.60;59.50;;;;;;5026532;28;20108;-74
2023/02/26 01:52:47;;;;;;;1.27;0.90;;;5.60;59.40;;;;;;5036244;28;20477;-74
2023/02/26 01:55:16;;;;;;;1.00;0.93;;;5.60;58.90;;;;;;5036459;28;20041;-74
2023/02/26 01:57:43;;;;;;;1.58;1.00;;;5.70;58.90;;;;;;5036076;28;20056;-74
2023/02/26 02:00:11;;;;;;;0.90;0.80;;;5.70;58.90;;;;;;5036095;28;20025;-74
2023/02/26 02:02:37;;;;;;;1.25;0.70;;;5.70;58.90;;;;;;5035619;28;20041;-74
2023/02/26 02:05:23;;;;;;;1.25;1.00;;;5.70;58.60;;;;;;5035259;28;20049;-74
2023/02/26 02:07:49;;;;;;;2.15;1.08;;;5.70;58.60;;;;;;5036316;28;20034;-74
2023/02/26 02:10:15;;;;;;;1.00;0.90;;;5.70;58.70;;;;;;5035851;28;20029;-74
2023/02/26 02:12:55;;;;;;;0.68;0.65;;;5.70;58.60;;;;;;5035454;28;20026;-74
2023/02/26 02:15:45;;;;;;;1.48;0.88;;;5.60;58.60;;;;;;5035712;28;20025;-74
2023/02/26 02:18:42;;;;;;;1.52;0.90;;;5.60;58.60;;;;;;5035430;28;20045;-74
2023/02/26 02:21:28;;;;;;;1.35;0.75;;;5.60;58.30;;;;;;5035301;28;20146;-73
2023/02/26 02:24:04;;;;;;;1.88;0.75;;;5.70;58.50;;;;;;5035722;28;20022;-74
2023/02/26 02:26:30;;;;;;;1.42;0.93;;;5.60;58.10;;;;;;5035236;28;20045;-74
2023/02/26 02:29:13;;;;;;;1.15;0.60;;;5.60;57.80;;;;;;5035249;28;20026;-74
2023/02/26 02:31:52;;;;;;;0.50;0.50;;;5.70;57.90;;;;;;5035189;28;20029;-74
2023/02/26 02:34:25;;;;;;;2.75;0.90;;;5.70;57.90;;;;;;5035127;28;20120;-74
2023/02/26 02:37:04;;;;;;;0.70;0.68;;;5.70;57.70;;;;;;5031537;28;20028;-74
2023/02/26 02:39:39;;;;;;;1.52;0.70;;;5.80;57.60;;;;;;5033417;28;20506;-73
2023/02/26 02:42:46;;;;;;;1.38;0.75;;;5.80;57.70;;;;;;5034658;28;20021;-73
2023/02/26 02:45:22;;;;;;;1.00;0.63;;;5.80;57.70;;;;;;4954773;29;20086;-74
2023/02/26 02:47:58;;;;;;;1.73;1.13;;;5.90;57.80;;;;;;4955153;29;20031;-74
2023/02/26 02:50:27;;;;;;;2.10;1.00;;;5.90;57.80;;;;;;4955048;29;20031;-73
2023/02/26 02:53:09;;;;;;;0.88;0.70;;;5.90;57.80;;;;;;4937094;29;20547;-73
2023/02/26 02:55:46;;;;;;;0.98;0.80;;;6.00;57.90;;;;;;4954924;29;20039;-74
2023/02/26 02:58:17;;;;;;;1.27;1.00;;;6.00;58.00;;;;;;4954994;29;20047;-74
2023/02/26 03:00:49;;;;;;;3.95;1.00;;;6.00;58.30;;;;;;4954950;29;20043;-73
2023/02/26 03:03:42;;;;;;;1.92;1.00;;;6.00;58.30;;;;;;4954854;29;20501;-73
2023/02/26 03:06:08;;;;;;;1.65;0.93;;;6.00;58.20;;;;;;4953683;29;20057;-73
2023/02/26 03:08:40;;;;;;;0.75;0.70;;;6.10;58.40;;;;;;4952858;29;20420;-74
2023/02/26 03:11:06;;;;;;;0.90;0.70;;;6.10;58.40;;;;;;4950676;29;20031;-74
2023/02/26 03:13:33;;;;;;;1.17;0.80;;;6.10;58.40;;;;;;4954277;29;20039;-74
2023/02/26 03:16:35;;;;;;;0.90;0.70;;;6.10;58.30;;;;;;4937621;29;20043;-73
2023/02/26 03:19:20;;;;;;;0.95;0.70;;;6.10;58.30;;;;;;4938263;29;20029;-74
2023/02/26 03:21:52;;;;;;;1.73;0.93;;;6.10;58.30;;;;;;5009892;28;20030;-74
2023/02/26 03:24:42;;;;;;;1.10;0.85;;;6.10;58.30;;;;;;5011871;28;20058;-74
2023/02/26 03:27:14;;;;;;;1.23;0.90;;;6.10;58.30;;;;;;4994783;28;20049;-74
2023/02/26 03:29:48;;;;;;;1.02;0.73;;;6.20;58.30;;;;;;4994798;28;20061;-73
2023/02/26 03:32:39;;;;;;;;;;;6.10;58.20;;;;;;4995390;28;20031;-74
2023/02/26 03:35:21;;;;;;;0.95;0.80;;;6.20;58.50;;;;;;4967876;28;19913;-73
2023/02/26 03:37:51;;;;;;;0.80;0.80;;;6.20;58.20;;;;;;5013551;28;20471;-74
2023/02/26 03:40:20;;;;;;;1.25;0.77;;;6.20;58.10;;;;;;5014305;28;20021;-74
2023/02/26 03:43:13;;;;;;;1.08;0.75;;;6.10;57.90;;;;;;5014225;28;20037;-74
2023/02/26 03:45:42;;;;;;;1.35;0.85;;;6.10;57.90;;;;;;4996820;28;20378;-74
2023/02/26 03:48:12;;;;;;;2.75;1.20;;;6.10;57.90;;;;;;5014117;28;20440;-74
2023/02/26 03:50:48;;;;;;;1.60;1.00;;;6.10;57.90;;;;;;5014840;28;20018;-74
2023/02/26 03:53:29;;;;;;;1.40;0.70;;;6.00;57.90;;;;;;5008350;28;20088;-73
2023/02/26 03:56:20;;;;;;;1.17;0.80;;;6.00;58.10;;;;;;5013950;28;20468;-74
2023/02/26 03:58:46;;;;;;;2.00;0.88;;;5.90;58.20;;;;;;5014179;28;20053;-74
2023/02/26 04:01:18;;;;;;;1.15;0.85;;;5.90;58.20;;;;;;5013866;28;20055;-73
2023/02/26 04:03:54;;;;;;;1.08;0.70;;;5.80;58.30;;;;;;5014174;28;20106;-74
2023/02/26 04:06:21;;;;;;;1.80;1.15;;;5.80;58.40;;;;;;5013170;28;20025;-74
2023/02/26 04:08:47;;;;;;;0.50;0.50;;;5.70;58.50;;;;;;5013962;28;20365;-74
2023/02/26 04:11:19;;;;;;;1.80;0.80;;;5.70;58.60;;;;;;5013687;28;20037;-73
2023/02/26 04:13:46;;;;;;;1.13;0.80;;;5.60;58.50;;;;;;5013518;28;20041;-74
2023/02/26 04:16:13;;;;;;;1.60;0.85;;;5.60;58.50;;;;;;5013833;28;20529;-74
2023/02/26 04:18:40;;;;;;;0.85;0.60;;;5.60;58.60;;;;;;5013513;28;20030;-74
2023/02/26 04:21:06;;;;;;;1.20;0.77;;;5.60;58.60;;;;;;5013515;28;20336;-74
2023/02/26 04:23:32;;;;;;;0.70;0.70;;;5.50;58.60;;;;;;5013454;28;20022;-73
2023/02/26 04:25:58;;;;;;;0.77;0.70;;;5.50;58.70;;;;;;5046196;28;20434;-74
2023/02/26 04:28:24;;;;;;;2.13;0.60;;;5.50;58.80;;;;;;5053083;28;20031;-74
2023/02/26 04:30:49;;;;;;;0.98;0.85;;;5.60;59.00;;;;;;5035246;28;20103;-73
2023/02/26 04:33:15;;;;;;;1.10;0.90;;;5.60;59.10;;;;;;5053291;28;20179;-74
2023/02/26 04:35:41;;;;;;;2.65;1.15;;;5.60;58.80;;;;;;5034856;28;20419;-73
2023/02/26 04:38:07;;;;;;;1.48;0.77;;;5.70;58.60;;;;;;5034462;28;20029;-74
2023/02/26 04:40:33;;;;;;;1.65;0.80;;;5.70;58.20;;;;;;5053019;28;20036;-73
2023/02/26 04:42:59;;;;;;;1.40;0.90;;;5.70;58.00;;;;;;5052765;28;20488;-74
2023/02/26 04:45:25;;;;;;;1.30;0.90;;;5.80;57.80;;;;;;5052811;28;20405;-74
2023/02/26 04:47:50;;;;;;;2.47;1.13;;;5.80;57.70;;;;;;5053090;28;20104;-74
2023/02/26 04:50:16;;;;;;;2.08;1.00;;;5.80;57.80;;;;;;5052827;28;20139;-74
2023/02/26 04:52:42;;;;;;;0.93;0.73;;;5.90;58.20;;;;;;5052849;28;20025;-74
2023/02/26 04:55:08;;;;;;;1.50;0.82;;;5.90;58.30;;;;;;5053311;28;20083;-73
2023/02/26 04:57:34;;;;;;;1.27;0.80;;;6.00;58.40;;;;;;5052858;28;20036;-74
2023/02/26 05:00:00;;;;;;;1.13;0.80;;;6.00;58.50;;;;;;5053164;28;20025;-74
2023/02/26 05:02:25;;;;;;;1.67;0.80;;;6.10;58.60;;;;;;5052804;28;20117;-73
2023/02/26 05:04:51;;;;;;;1.80;1.02;;;6.10;58.60;;;;;;5052904;28;20398;-74
2023/02/26 05:07:17;;;;;;;1.40;0.80;;;6.20;58.60;;;;;;5052684;28;20025;-74
2023/02/26 05:09:43;;;;;;;1.98;1.05;;;6.20;58.50;;;;;;5029908;28;20028;-74
2023/02/26 05:12:09;;;;;;;1.38;1.13;;;6.20;58.10;;;;;;5036172;28;20025;-74
2023/02/26 05:14:35;;;;;;;1.58;1.27;;;6.20;57.80;;;;;;5043337;28;20040;-73
2023/02/26 05:17:01;;;;;;;1.42;0.85;;;6.30;57.50;;;;;;5038331;28;20373;-74
2023/02/26 05:19:26;;;;;;;1.42;0.90;;;6.30;57.50;;;;;;5033838;28;20020;-74
2023/02/26 05:21:52;;;;;;;1.30;0.95;;;6.30;57.60;;;;;;5051976;28;20021;-74
2023/02/26 05:24:18;;;;;;;1.65;1.00;;;6.30;57.50;;;;;;5059384;28;20064;-73
2023/02/26 05:26:45;;;;;;;4.72;1.00;;;6.30;57.30;;;;;;5057062;28;20025;-74
2023/02/26 05:29:11;;;;;;;1.02;0.70;;;6.30;57.20;;;;;;5051759;28;20027;-73
2023/02/26 05:31:37;;;;;;;1.17;0.98;;;6.40;57.20;;;;;;5054921;28;20528;-73
2023/02/26 05:34:03;;;;;;;2.63;1.00;;;6.40;57.30;;;;;;5051893;28;20029;-74
2023/02/26 05:36:28;;;;;;;2.97;0.95;;;6.40;57.20;;;;;;5051638;28;20501;-74
2023/02/26 05:38:54;;;;;;;4.70;1.05;;;6.40;57.10;;;;;;5054129;28;20031;-73
2023/02/26 05:41:20;;;;;;;2.20;0.90;;;6.40;57.10;;;;;;5054915;28;20033;-74
2023/02/26 05:43:46;;;;;;;1.73;1.05;;;6.40;57.10;;;;;;5055283;28;20028;-74
2023/02/26 05:46:12;;;;;;;2.90;0.90;;;6.40;57.00;;;;;;5055259;28;20474;-73
2023/02/26 05:48:38;;;;;;;1.90;1.10;;;6.40;56.90;;;;;;5055428;28;20087;-73
2023/02/26 05:51:04;;;;;;;1.35;1.00;;;6.40;56.60;;;;;;5055129;28;20466;-74
2023/02/26 05:53:30;;;;;;;6.05;0.90;;;6.40;56.60;;;;;;5054899;28;20047;-74
2023/02/26 05:55:56;;;;;;;1.33;0.98;;;6.40;56.50;;;;;;5050825;28;20021;-74
2023/02/26 05:58:22;;;;;;;4.88;1.27;;;6.40;56.50;;;;;;5054827;28;20025;-73
2023/02/26 06:00:48;;;;;;;2.80;1.08;;;6.40;56.60;;;;;;5037466;28;20478;-73
2023/02/26 06:03:14;;;;;;;0.98;0.88;;;6.40;56.70;;;;;;5055491;28;20098;-73
2023/02/26 06:05:40;;;;;;;1.20;0.90;;;6.30;56.70;;;;;;5055162;28;20102;-73
2023/02/26 06:08:06;;;;;;;1.38;1.00;;;6.30;56.70;;;;;;5055322;28;20470;-73
2023/02/26 06:10:32;;;;;;;1.35;0.98;;;6.30;56.60;;;;;;5055237;28;20108;-73
2023/02/26 06:12:57;;;;;;;1.10;0.80;;;6.20;56.60;;;;;;5055139;28;20029;-73
2023/02/26 06:15:23;;;;;;;1.67;1.00;;;6.20;56.60;;;;;;5037398;28;20408;-73
2023/02/26 06:17:49;;;;;;;1.55;1.20;;;6.20;56.60;;;;;;5055193;28;20116;-73
2023/02/26 06:20:16;;;;;;;3.78;1.17;;;6.20;56.40;;;;;;5037408;28;20374;-73
2023/02/26 06:22:41;;;;;;;2.05;1.38;;;6.20;56.30;;;;;;5054692;28;20186;-73
2023/02/26 06:25:08;;;;;;;3.05;1.30;;;6.20;56.30;;;;;;5033852;28;20056;-73
2023/02/26 06:27:33;;;;;;;1.10;1.00;;;6.20;56.20;;;;;;5034973;28;20080;-73
2023/02/26 06:29:59;;;;;;;1.90;1.30;;;6.20;55.80;;;;;;5035148;28;20453;-73
2023/02/26 06:32:25;;;;;;;2.38;1.40;;;6.10;55.90;;;;;;5014220;28;20030;-73
2023/02/26 06:34:51;;;;;;;2.25;1.42;;;6.20;56.10;;;;;;5017012;28;20033;-73
2023/02/26 06:37:16;;;;;;;2.08;1.20;;;6.20;56.20;;;;;;5033710;28;20030;-73
2023/02/26 06:39:42;;;;;;;1.58;1.00;;;6.20;56.10;;;;;;5033844;28;20097;-73
2023/02/26 06:42:08;;;;;;;2.00;1.20;;;6.20;56.00;;;;;;5035178;28;20029;-74
2023/02/26 06:44:34;;;;;;;5.00;1.38;;;6.30;56.10;;;;;;5034952;28;20032;-73
2023/02/26 06:46:59;;;;;;;2.30;0.93;;;6.30;56.00;;;;;;5034836;28;20025;-73
2023/02/26 06:49:25;;;;;;;1.05;0.70;;;6.30;56.10;;;;;;5033507;28;20026;-73
2023/02/26 06:51:51;;;;;;;1.60;0.95;;;6.40;56.00;;;;;;5032998;28;20212;-73
2023/02/26 06:54:17;;;;;;;2.25;0.90;;;6.30;55.80;;;;;;5034264;28;20045;-73
2023/02/26 06:56:42;;;;;;;1.63;1.23;;;6.40;55.70;;;;;;5034609;28;20017;-73
2023/02/26 06:59:08;;;;;;;4.18;1.08;;;6.40;55.70;;;;;;5033021;28;20088;-73
2023/02/26 07:01:34;;;;;;;0.82;0.75;;;6.50;55.80;;;;;;5034327;28;20419;-73
2023/02/26 07:04:00;;;;;;;1.63;0.98;;;6.50;55.80;;;;;;5034233;28;20037;-73
2023/02/26 07:06:26;;;;;;;1.77;1.15;;;6.60;55.70;;;;;;5033058;28;20498;-73
2023/02/26 07:08:52;;;;;;;1.73;1.00;;;6.60;55.40;;;;;;5034677;28;20364;-73
2023/02/26 07:11:18;;;;;;;1.75;0.98;;;6.70;55.40;;;;;;5033151;28;20448;-73
2023/02/26 07:13:44;;;;;;;1.92;1.30;;;6.80;55.50;;;;;;5032719;28;20116;-73
2023/02/26 07:16:10;;;;;;;1.58;0.95;;;6.80;55.30;;;;;;5014554;28;20385;-73
2023/02/26 07:18:36;;;;;;;1.23;1.00;;;6.90;55.10;;;;;;5013222;28;20033;-73
2023/02/26 07:21:03;;;;;;;2.80;1.40;;;6.90;54.90;;;;;;5019222;28;20021;-73
2023/02/26 07:23:29;;;;;;;4.13;1.23;;;6.90;55.00;;;;;;5032169;28;20070;-73
2023/02/26 07:25:55;;;;;;;2.45;1.05;;;6.90;55.20;;;;;;5020500;28;20045;-73
2023/02/26 07:28:22;;;;;;;5.05;1.85;;;7.00;55.30;;;;;;5033674;28;20143;-73
2023/02/26 07:30:48;;;;;;;2.88;1.10;;;7.00;55.30;;;;;;5033990;28;20397;-73
2023/02/26 07:33:14;;;;;;;2.25;1.35;;;7.00;55.30;;;;;;5033828;28;20029;-73
2023/02/26 07:35:40;;;;;;;2.80;1.35;;;7.00;55.10;;;;;;5033882;28;20018;-73
2023/02/26 07:38:06;;;;;;;4.70;1.20;;;7.00;55.00;;;;;;5033685;28;20022;-73
2023/02/26 07:40:32;;;;;;;4.53;1.40;;;7.00;54.90;;;;;;5032516;28;20554;-73
2023/02/26 07:42:58;;;;;;;5.45;1.13;;;6.90;54.80;;;;;;5034062;28;20029;-73
2023/02/26 07:45:24;;;;;;;2.15;1.08;;;6.90;54.90;;;;;;5033795;28;20029;-73
2023/02/26 07:47:51;;;;;;;1.20;0.98;;;6.90;55.00;;;;;;5033641;28;20450;-73
2023/02/26 07:50:18;;;;;;;1.52;1.00;;;6.90;55.20;;;;;;5034063;28;20022;-73
2023/02/26 07:52:45;;;;;;;1.50;0.93;;;6.90;55.30;;;;;;5032861;28;20029;-73
2023/02/26 07:55:11;;;;;;;2.70;1.77;;;6.90;55.30;;;;;;5027045;28;20022;-73
2023/02/26 07:57:37;;;;;;;3.47;1.30;;;7.00;55.50;;;;;;5023461;28;20112;-73
2023/02/26 08:00:04;;;;;;;4.30;2.28;;;7.00;55.70;;;;;;5033474;28;20047;-73
2023/02/26 08:02:30;;;;;;;3.30;1.88;;;7.10;55.90;;;;;;5033408;28;20025;-73
2023/02/26 08:04:56;;;;;;;2.92;1.83;;;7.20;56.20;;;;;;5033392;28;20028;-74
2023/02/26 08:07:22;;;;;;;3.42;1.90;;;7.20;56.30;;;;;;5033487;28;20033;-73
2023/02/26 08:09:48;;;;;;;7.22;2.80;;;7.30;56.30;;;;;;5032138;28;20029;-73
2023/02/26 08:12:13;;;;;;;2.08;1.70;;;7.40;56.30;;;;;;5033276;28;20030;-74
2023/02/26 08:14:42;;;;;;;6.97;1.48;;;7.40;56.20;;;;;;5033131;28;20052;-73
2023/02/26 08:17:08;;;;;;;2.95;1.75;;;7.50;56.20;;;;;;5033389;28;20038;-73
2023/02/26 08:19:34;;;;;;;3.15;1.63;;;7.50;56.10;;;;;;5033206;28;20051;-74
2023/02/26 08:22:00;;;;;;;3.45;1.90;;;7.50;56.30;;;;;;5031957;28;20017;-74
2023/02/26 08:24:26;;;;;;;2.85;1.45;;;7.50;56.20;;;;;;5032282;28;20041;-73
2023/02/26 08:26:52;;;;;;;2.97;1.70;;;7.60;56.30;;;;;;5031964;28;20136;-73
2023/02/26 08:29:17;;;;;;;2.30;1.50;;;7.60;56.30;;;;;;5032963;28;20025;-74
2023/02/26 08:31:43;;;;;;;4.68;2.80;;;7.50;56.30;;;;;;5033128;28;20104;-73
2023/02/26 08:34:09;;;;;;;5.55;3.15;;;7.60;56.70;;;;;;5031620;28;20025;-74
2023/02/26 08:36:35;;;;;;;7.10;3.78;;;7.60;56.70;;;;;;5031381;28;20553;-75
2023/02/26 08:39:01;;;;;;;6.20;3.40;;;7.60;56.80;;;;;;5032844;28;20032;-74
2023/02/26 08:41:31;;;;;;;3.55;2.20;;;7.60;56.80;;;;;;5032877;28;20030;-74
2023/02/26 08:43:59;;;;;;;5.07;1.88;;;7.70;56.70;;;;;;5031051;28;20030;-74
2023/02/26 08:46:25;;;;;;;5.63;1.70;;;7.80;56.60;;;;;;5033047;28;20410;-74
2023/02/26 08:48:52;;;;;;;2.75;1.80;;;7.80;56.50;;;;;;5031566;28;20535;-72
2023/02/26 08:51:18;;;;;;;2.72;2.20;;;7.90;56.70;;;;;;5032876;28;20036;-74
2023/02/26 08:53:46;;;;;;;4.38;3.25;;;8.00;56.80;;;;;;5031819;28;20026;-74
2023/02/26 08:56:12;;;;;;;2.47;1.88;;;8.10;56.80;;;;;;5033278;28;20108;-74
2023/02/26 08:58:38;;;;;;;2.70;2.03;;;8.20;56.40;;;;;;5033028;28;20470;-74
2023/02/26 09:01:04;;;;;;;3.58;1.52;;;8.30;55.90;;;;;;5032727;28;20383;-74
2023/02/26 09:03:30;;;;;;;2.95;1.73;;;8.30;55.40;;;;;;5032270;28;20030;-73
2023/02/26 09:05:56;;;;;;;2.60;1.60;;;8.30;55.00;;;;;;5033006;28;20022;-75
2023/02/26 09:08:22;;;;;;;5.38;1.60;;;8.40;54.90;;;;;;5032854;28;20037;-74
2023/02/26 09:10:48;;;;;;;1.90;1.58;;;8.40;54.70;;;;;;5032659;28;20057;-73
2023/02/26 09:13:14;;;;;;;2.60;2.00;;;8.40;54.80;;;;;;5034741;28;20147;-74
2023/02/26 09:15:40;;;;;;;4.50;2.13;;;8.50;54.80;;;;;;5037049;28;20045;-75
2023/02/26 09:18:06;;;;;;;3.60;1.60;;;8.50;54.70;;;;;;5036847;28;20104;-74
2023/02/26 09:20:32;;;;;;;2.63;1.80;;;8.50;54.50;;;;;;5036633;28;20107;-75
2023/02/26 09:22:58;;;;;;;2.42;1.83;;;8.50;54.40;;;;;;5037283;28;20018;-75
2023/02/26 09:25:23;;;;;;;2.83;2.05;;;8.50;54.40;;;;;;5036351;28;20051;-75
2023/02/26 09:27:49;;;;;;;2.67;1.45;;;8.60;54.60;;;;;;5036468;28;20029;-74
2023/02/26 09:30:16;;;;;;;3.28;1.80;;;8.60;54.50;;;;;;5035305;28;20033;-75
2023/02/26 09:32:41;;;;;;;3.65;3.13;;;8.70;54.70;;;;;;5036769;28;20593;-74
2023/02/26 09:35:08;;;;;;;4.00;2.42;;;8.70;54.50;;;;;;5036121;28;20108;-74
2023/02/26 09:37:34;;;;;;;5.68;3.22;;;8.80;54.30;;;;;;5035134;28;20022;-75
2023/02/26 09:40:02;;;;;;;6.35;2.03;;;8.80;54.40;;;;;;5036386;28;20048;-75
2023/02/26 09:42:30;;;;;;;3.72;1.90;;;9.00;54.60;;;;;;5036408;28;20414;-74
2023/02/26 09:44:58;;;;;;;2.40;1.70;;;9.00;54.30;;;;;;5035045;28;20021;-74
2023/02/26 09:47:50;;;;;;;3.30;1.88;;;9.10;54.40;;;;;;5036150;28;20049;-74
2023/02/26 09:50:16;;;;;;;2.22;1.73;;;9.20;54.30;;;;;;5034914;28;20044;-74
2023/02/26 09:53:01;;;;;;;2.30;1.63;;;9.30;54.20;;;;;;5034333;28;20029;-72
2023/02/26 09:55:49;;;;;;;3.10;2.00;;;9.40;53.30;;;;;;5015542;28;20506;-73
2023/02/26 09:58:32;;;;;;;2.63;1.70;;;9.50;53.30;;;;;;5035203;28;20514;-74
2023/02/26 10:01:25;;;;;;;5.40;2.03;;;9.60;53.40;;;;;;5033466;28;20014;-74
2023/02/26 10:04:09;;;;;;;3.88;1.83;;;9.60;53.10;;;;;;5026054;28;20526;-74
2023/02/26 10:06:56;;;;;;;4.57;2.67;;;9.70;53.00;;;;;;5030945;28;20156;-74
2023/02/26 10:09:22;;;;;;;6.60;4.28;;;9.70;53.00;;;;;;5032258;28;20033;-74
2023/02/26 10:11:59;;;;;;;5.25;3.05;;;9.80;53.10;;;;;;5033015;28;20541;-74
2023/02/26 10:14:41;;;;;;;4.10;2.75;;;9.90;53.00;;;;;;5033922;28;20037;-74
2023/02/26 10:17:13;;;;;;;6.15;2.00;;;9.90;52.60;;;;;;5033891;28;20017;-74
2023/02/26 10:19:43;;;;;;;1.17;0.93;;;9.90;50.90;;;;;;5033890;28;20534;-74
2023/02/26 10:22:25;;;;;;;12.40;1.33;;;9.80;48.70;;;;;;5034234;28;20036;-74
2023/02/26 10:25:15;;;;;;;15.18;2.65;;;9.80;48.60;;;;;;5035495;28;20185;-74
2023/02/26 10:28:08;;;;;;;4.00;2.05;;;9.70;46.70;;;;;;5041142;28;20447;-76
2023/02/26 10:30:49;;;;;;;1.90;0.95;;;9.50;45.70;;;;;;5051883;28;20547;-74
2023/02/26 10:33:38;;;;;;;2.95;0.90;;;9.20;45.20;;;;;;5052865;28;20028;-74
2023/02/26 10:36:27;;;;;;;1.60;1.25;;;9.10;45.70;;;;;;5013355;28;20049;-74
2023/02/26 10:39:20;;;;;;;4.95;1.52;;;8.90;46.30;;;;;;5053920;28;20445;-74
2023/02/26 10:41:46;;;;;;;8.60;1.20;;;8.90;47.00;;;;;;5053285;28;20086;-73
2023/02/26 10:44:18;;;;;;;2.95;1.15;;;8.90;46.00;;;;;;5035973;28;20032;-74
2023/02/26 10:47:21;;;;;;;6.50;1.05;;;8.80;44.30;;;;;;5053661;28;20385;-74
2023/02/26 10:49:58;;;;;;;5.05;1.42;;;8.60;44.10;;;;;;5049970;28;20095;-74
2023/02/26 10:52:26;;;;;;;4.85;1.40;;;8.50;44.80;;;;;;5053002;28;20047;-73
2023/02/26 10:55:07;;;;;;;4.10;1.10;;;8.50;45.80;;;;;;5050128;28;20025;-73
2023/02/26 10:57:51;;;;;;;5.40;2.35;;;8.50;45.50;;;;;;5049808;28;20053;-74
2023/02/26 11:00:19;;;;;;;7.00;1.30;;;8.40;45.10;;;;;;5050754;28;20359;-74
2023/02/26 11:02:50;;;;;;;1.75;1.33;;;8.40;45.40;;;;;;5034815;28;20124;-74
2023/02/26 11:05:23;;;;;;;2.88;1.48;;;8.40;45.70;;;;;;5053230;28;20039;-73
2023/02/26 11:07:53;;;;;;;5.38;1.50;;;8.50;46.30;;;;;;5053037;28;20025;-74
2023/02/26 11:10:26;;;;;;;4.43;2.80;;;8.60;46.30;;;;;;5052969;28;20483;-73
2023/02/26 11:12:52;;;;;;;3.38;1.50;;;8.60;46.40;;;;;;5051964;28;20060;-73
2023/02/26 11:15:25;;;;;;;1.67;1.00;;;8.60;46.60;;;;;;5052686;28;20022;-74
2023/02/26 11:17:58;;;;;;;1.50;0.90;;;8.60;46.30;;;;;;5052365;28;20280;-74
2023/02/26 11:20:37;;;;;;;1.20;0.80;;;8.60;46.80;;;;;;5035016;28;20437;-74
2023/02/26 11:23:10;;;;;;;1.52;0.98;;;8.60;46.10;;;;;;5034574;28;20102;-74
2023/02/26 11:25:36;;;;;;;1.23;0.70;;;8.50;45.00;;;;;;5035834;28;20474;-74
2023/02/26 11:28:18;;;;;;;1.73;0.88;;;8.30;44.60;;;;;;5032645;28;20471;-74
2023/02/26 11:30:45;;;;;;;6.28;1.00;;;8.10;44.20;;;;;;5029753;28;20041;-74
2023/02/26 11:33:36;;;;;;;2.95;1.80;;;8.00;44.50;;;;;;5029723;28;20022;-74
2023/02/26 11:36:06;;;;;;;1.85;1.17;;;7.80;45.50;;;;;;5030866;28;20017;-73
2023/02/26 11:38:33;;;;;;;2.00;1.10;;;7.70;45.40;;;;;;5029895;28;20057;-74
2023/02/26 11:41:01;;;;;;;2.13;1.23;;;7.60;45.10;;;;;;5030643;28;20027;-74
2023/02/26 11:43:40;;;;;;;3.03;0.80;;;7.60;46.40;;;;;;5032261;28;20029;-73
2023/02/26 11:46:07;;;;;;;3.47;1.13;;;7.60;47.10;;;;;;5014317;28;20036;-74
2023/02/26 11:48:36;;;;;;;13.95;1.95;;;7.60;47.60;;;;;;5032079;28;20030;-73
2023/02/26 11:51:06;;;;;;;2.65;1.42;;;7.60;47.30;;;;;;5031282;28;20049;-74
2023/02/26 11:53:35;;;;;;;1.55;1.00;;;7.60;46.40;;;;;;5029523;28;20044;-74
2023/02/26 11:56:10;;;;;;;1.42;1.00;;;7.60;45.60;;;;;;5031799;28;20441;-73
2023/02/26 11:58:38;;;;;;;3.08;1.58;;;7.50;44.70;;;;;;5030188;28;20512;-74
2023/02/26 12:01:09;;;;;;;7.22;1.35;;;7.40;45.00;;;;;;5032229;28;20049;-74
2023/02/26 12:03:40;;;;;;;1.65;0.90;;;7.40;45.00;;;;;;5030327;28;20071;-73
2023/02/26 12:06:14;;;;;;;3.35;1.25;;;7.40;44.40;;;;;;5032176;28;20037;-73
2023/02/26 12:08:39;;;;;;;2.45;1.48;;;7.40;45.70;;;;;;5031706;28;20426;-73
2023/02/26 12:11:26;;;;;;;2.70;1.08;;;7.40;45.70;;;;;;5031929;28;20042;-73
2023/02/26 12:14:19;;;;;;;5.97;3.28;;;7.40;46.30;;;;;;5011904;28;20027;-73
2023/02/26 12:16:57;;;;;;;2.60;1.48;;;7.40;46.30;;;;;;5003477;28;20041;-74
2023/02/26 12:19:41;;;;;;;1.73;1.10;;;7.50;45.90;;;;;;5030941;28;20487;-74
2023/02/26 12:22:34;;;;;;;2.17;0.95;;;7.40;45.90;;;;;;5031529;28;20017;-73
2023/02/26 12:25:20;;;;;;;3.00;1.27;;;7.30;45.80;;;;;;5021484;28;20045;-73
2023/02/26 12:28:14;;;;;;;1.00;0.80;;;7.30;46.50;;;;;;5011648;28;20089;-73
2023/02/26 12:31:17;;;;;;;5.47;1.40;;;7.30;45.20;;;;;;5010793;28;20502;-73
2023/02/26 12:34:02;;;;;;;3.58;1.10;;;7.20;44.60;;;;;;5011064;28;20113;-73
2023/02/26 12:36:54;;;;;;;1.38;0.90;;;7.20;45.30;;;;;;5011939;28;20029;-74
2023/02/26 12:39:57;;;;;;;1.40;0.70;;;7.20;45.40;;;;;;4991445;28;20034;-73
2023/02/26 12:42:45;;;;;;;1.92;0.90;;;7.20;44.70;;;;;;5010729;28;20026;-73
2023/02/26 12:45:47;;;;;;;3.63;0.90;;;7.20;44.80;;;;;;4994505;28;20030;-75
2023/02/26 12:49:01;;;;;;;1.38;0.77;;;7.10;45.00;;;;;;5006946;28;20030;-73
2023/02/26 12:52:07;;;;;;;1.63;1.00;;;7.10;44.70;;;;;;5013038;28;20032;-73
2023/02/26 12:55:10;;;;;;;1.45;0.90;;;7.10;45.10;;;;;;4984210;28;20041;-73
2023/02/26 12:57:57;;;;;;;2.25;1.05;;;7.30;46.10;;;;;;5013910;28;20037;-73
2023/02/26 13:00:52;;;;;;;2.22;1.30;;;7.30;45.40;;;;;;5014842;28;20022;-73
2023/02/26 13:03:50;;;;;;;2.67;1.20;;;7.40;45.60;;;;;;4944598;28;20028;-74
2023/02/26 13:06:38;;;;;;;1.23;0.90;;;7.50;44.70;;;;;;5013340;28;20447;-74
2023/02/26 13:09:32;;;;;;;2.05;1.00;;;7.60;44.10;;;;;;5014410;28;20513;-74
2023/02/26 13:12:08;;;;;;;4.35;1.63;;;7.60;43.70;;;;;;5013758;28;20453;-73
2023/02/26 13:15:05;;;;;;;4.10;2.30;;;7.60;43.30;;;;;;5013313;28;20032;-73
2023/02/26 13:17:52;;;;;;;3.13;1.42;;;7.50;43.80;;;;;;5012950;28;20025;-73
2023/02/26 13:20:25;;;;;;;3.75;1.40;;;7.60;43.40;;;;;;4995959;28;20022;-73
2023/02/26 13:22:54;;;;;;;3.00;1.58;;;7.60;43.20;;;;;;5009322;28;20022;-73
2023/02/26 13:25:50;;;;;;;2.30;1.42;;;7.60;44.10;;;;;;5035635;28;20040;-74